sensor_id;sensor_type;location;lat;lon;timestamp;temperature;humidity
46492;DHT22;32206;51.446;6.792;2023-06-10T00:21:28;22.50;91.80
46492;DHT22;32206;51.446;6.792;2023-06-10T00:23:54;22.50;99.90
46492;DHT22;32206;51.446;6.792;2023-06-10T00:26:58;22.40;99.90
46492;DHT22;32206;51.446;6.792;2023-06-10T00:29:23;22.30;99.90
46492;DHT22;32206;51.446;6.792;2023-06-10T00:39:05;22.10;99.90
46492;DHT22;32206;51.446;6.792;2023-06-10T00:41:31;22.10;99.90
46492;DHT22;32206;51.446;6.792;2023-06-10T00:44:02;22.10;1.00
46492;DHT22;32206;51.446;6.792;2023-06-10T00:46:27;22.10;1.00
46492;DHT22;32206;51.446;6.792;2023-06-10T00:59:04;21.90;1.00
46492;DHT22;32206;51.446;6.792;2023-06-10T01:01:29;21.90;1.00
46492;DHT22;32206;51.446;6.792;2023-06-10T01:17:53;21.60;99.90
46492;DHT22;32206;51.446;6.792;2023-06-10T01:20:19;21.60;99.90
46492;DHT22;32206;51.446;6.792;2023-06-10T01:36:15;21.30;99.30
46492;DHT22;32206;51.446;6.792;2023-06-10T01:39:20;21.30;99.90
46492;DHT22;32206;51.446;6.792;2023-06-10T01:51:53;21.20;1.00
46492;DHT22;32206;51.446;6.792;2023-06-10T02:01:03;21.10;78.60
46492;DHT22;32206;51.446;6.792;2023-06-10T02:10:12;21.00;99.90
46492;DHT22;32206;51.446;6.792;2023-06-10T02:19:48;20.90;1.00
46492;DHT22;32206;51.446;6.792;2023-06-10T02:22:21;20.80;99.90
46492;DHT22;32206;51.446;6.792;2023-06-10T02:24:47;20.80;99.90
46492;DHT22;32206;51.446;6.792;2023-06-10T02:27:13;20.80;94.20
46492;DHT22;32206;51.446;6.792;2023-06-10T02:36:07;20.70;99.90
46492;DHT22;32206;51.446;6.792;2023-06-10T02:39:10;20.70;99.90
46492;DHT22;32206;51.446;6.792;2023-06-10T02:41:35;20.60;99.90
46492;DHT22;32206;51.446;6.792;2023-06-10T03:00:52;20.40;99.90
46492;DHT22;32206;51.446;6.792;2023-06-10T03:16:47;20.30;99.90
46492;DHT22;32206;51.446;6.792;2023-06-10T03:19:13;20.20;99.90
46492;DHT22;32206;51.446;6.792;2023-06-10T03:21:39;20.20;99.90
46492;DHT22;32206;51.446;6.792;2023-06-10T03:24:07;20.20;99.90
46492;DHT22;32206;51.446;6.792;2023-06-10T03:33:35;20.10;99.90
46492;DHT22;32206;51.446;6.792;2023-06-10T03:36:01;20.10;99.90
46492;DHT22;32206;51.446;6.792;2023-06-10T03:51:56;19.80;99.90
46492;DHT22;32206;51.446;6.792;2023-06-10T03:57:44;19.90;99.90
46492;DHT22;32206;51.446;6.792;2023-06-10T04:20:14;19.90;99.90
46492;DHT22;32206;51.446;6.792;2023-06-10T04:22:41;19.90;99.90
46492;DHT22;32206;51.446;6.792;2023-06-10T04:25:06;19.90;99.90
46492;DHT22;32206;51.446;6.792;2023-06-10T04:31:26;19.90;99.90
46492;DHT22;32206;51.446;6.792;2023-06-10T04:37:32;19.90;99.90
46492;DHT22;32206;51.446;6.792;2023-06-10T04:39:58;19.90;99.90
46492;DHT22;32206;51.446;6.792;2023-06-10T04:42:24;19.90;99.90
46492;DHT22;32206;51.446;6.792;2023-06-10T04:44:50;19.90;99.90
46492;DHT22;32206;51.446;6.792;2023-06-10T05:04:41;20.00;16.50
46492;DHT22;32206;51.446;6.792;2023-06-10T05:07:38;20.10;99.90
46492;DHT22;32206;51.446;6.792;2023-06-10T05:10:04;20.10;99.90
46492;DHT22;32206;51.446;6.792;2023-06-10T05:16:01;20.10;99.90
46492;DHT22;32206;51.446;6.792;2023-06-10T05:21:50;20.20;1.00
46492;DHT22;32206;51.446;6.792;2023-06-10T05:27:37;20.30;99.90
46492;DHT22;32206;51.446;6.792;2023-06-10T05:30:03;20.40;99.90
46492;DHT22;32206;51.446;6.792;2023-06-10T05:33:00;20.40;99.90
46492;DHT22;32206;51.446;6.792;2023-06-10T05:42:10;20.60;1.00
46492;DHT22;32206;51.446;6.792;2023-06-10T05:44:36;20.60;99.90
46492;DHT22;32206;51.446;6.792;2023-06-10T05:50:46;20.70;1.00
46492;DHT22;32206;51.446;6.792;2023-06-10T05:59:58;21.00;85.50
46492;DHT22;32206;51.446;6.792;2023-06-10T06:02:24;21.00;99.90
46492;DHT22;32206;51.446;6.792;2023-06-10T06:08:20;21.20;1.00
46492;DHT22;32206;51.446;6.792;2023-06-10T06:20:54;21.60;1.00
46492;DHT22;32206;51.446;6.792;2023-06-10T06:26:42;21.80;99.90
46492;DHT22;32206;51.446;6.792;2023-06-10T06:42:42;22.20;19.70
46492;DHT22;32206;51.446;6.792;2023-06-10T07:02:00;22.90;1.00
46492;DHT22;32206;51.446;6.792;2023-06-10T07:04:26;22.90;1.00
46492;DHT22;32206;51.446;6.792;2023-06-10T07:10:13;23.00;1.00
46492;DHT22;32206;51.446;6.792;2023-06-10T07:19:24;23.30;1.00
46492;DHT22;32206;51.446;6.792;2023-06-10T07:35:19;23.90;99.90
46492;DHT22;32206;51.446;6.792;2023-06-10T07:41:08;24.10;99.90
46492;DHT22;32206;51.446;6.792;2023-06-10T07:43:34;24.20;99.90
46492;DHT22;32206;51.446;6.792;2023-06-10T07:52:44;24.50;99.90
46492;DHT22;32206;51.446;6.792;2023-06-10T08:01:55;24.70;99.90
46492;DHT22;32206;51.446;6.792;2023-06-10T08:21:12;25.20;99.90
46492;DHT22;32206;51.446;6.792;2023-06-10T08:23:38;25.40;99.90
46492;DHT22;32206;51.446;6.792;2023-06-10T08:26:04;25.40;99.90
46492;DHT22;32206;51.446;6.792;2023-06-10T08:28:30;25.50;99.90
46492;DHT22;32206;51.446;6.792;2023-06-10T08:30:55;25.60;99.90
46492;DHT22;32206;51.446;6.792;2023-06-10T08:46:36;26.10;99.90
46492;DHT22;32206;51.446;6.792;2023-06-10T08:49:06;26.20;99.90
46492;DHT22;32206;51.446;6.792;2023-06-10T08:58:20;26.50;99.90
46492;DHT22;32206;51.446;6.792;2023-06-10T09:00:46;26.60;99.90
46492;DHT22;32206;51.446;6.792;2023-06-10T09:03:12;26.70;99.90
46492;DHT22;32206;51.446;6.792;2023-06-10T09:22:15;27.30;99.90
46492;DHT22;32206;51.446;6.792;2023-06-10T09:25:07;27.40;99.90
46492;DHT22;32206;51.446;6.792;2023-06-10T09:34:52;27.70;99.90
46492;DHT22;32206;51.446;6.792;2023-06-10T09:37:22;27.90;99.90
46492;DHT22;32206;51.446;6.792;2023-06-10T09:43:10;28.10;99.90
46492;DHT22;32206;51.446;6.792;2023-06-10T10:03:11;28.70;99.90
46492;DHT22;32206;51.446;6.792;2023-06-10T10:05:59;28.80;99.90
46492;DHT22;32206;51.446;6.792;2023-06-10T10:08:26;28.90;99.90
46492;DHT22;32206;51.446;6.792;2023-06-10T10:11:28;29.00;99.90
46492;DHT22;32206;51.446;6.792;2023-06-10T10:14:05;29.10;99.90
46492;DHT22;32206;51.446;6.792;2023-06-10T10:16:37;29.20;99.90
46492;DHT22;32206;51.446;6.792;2023-06-10T10:22:37;29.40;99.90
46492;DHT22;32206;51.446;6.792;2023-06-10T10:28:41;29.70;99.90
46492;DHT22;32206;51.446;6.792;2023-06-10T10:41:18;30.10;99.90
46492;DHT22;32206;51.446;6.792;2023-06-10T10:43:45;30.20;99.90
46492;DHT22;32206;51.446;6.792;2023-06-10T10:46:13;30.30;99.90
46492;DHT22;32206;51.446;6.792;2023-06-10T10:52:04;30.40;99.90
46492;DHT22;32206;51.446;6.792;2023-06-10T10:54:36;30.60;99.90
46492;DHT22;32206;51.446;6.792;2023-06-10T10:57:16;30.70;99.90
46492;DHT22;32206;51.446;6.792;2023-06-10T11:02:37;30.90;99.90
46492;DHT22;32206;51.446;6.792;2023-06-10T11:05:07;31.00;99.90
46492;DHT22;32206;51.446;6.792;2023-06-10T11:07:34;31.10;99.90
46492;DHT22;32206;51.446;6.792;2023-06-10T11:10:13;31.20;99.90
46492;DHT22;32206;51.446;6.792;2023-06-10T11:12:50;31.30;99.90
46492;DHT22;32206;51.446;6.792;2023-06-10T11:15:25;31.40;99.90
46492;DHT22;32206;51.446;6.792;2023-06-10T11:18:26;31.50;99.90
46492;DHT22;32206;51.446;6.792;2023-06-10T11:21:03;31.60;99.90
46492;DHT22;32206;51.446;6.792;2023-06-10T11:36:07;32.00;99.90
46492;DHT22;32206;51.446;6.792;2023-06-10T11:38:33;32.00;99.90
46492;DHT22;32206;51.446;6.792;2023-06-10T11:41:02;32.10;99.90
46492;DHT22;32206;51.446;6.792;2023-06-10T11:43:28;32.20;99.90
46492;DHT22;32206;51.446;6.792;2023-06-10T11:45:55;32.20;99.90
46492;DHT22;32206;51.446;6.792;2023-06-10T11:48:21;32.30;99.90
46492;DHT22;32206;51.446;6.792;2023-06-10T11:50:47;32.40;99.90
46492;DHT22;32206;51.446;6.792;2023-06-10T11:53:13;32.80;99.90
46492;DHT22;32206;51.446;6.792;2023-06-10T11:55:42;32.80;99.90
46492;DHT22;32206;51.446;6.792;2023-06-10T11:58:19;32.90;99.90
46492;DHT22;32206;51.446;6.792;2023-06-10T12:00:50;32.90;99.90
46492;DHT22;32206;51.446;6.792;2023-06-10T12:03:16;32.90;99.90
46492;DHT22;32206;51.446;6.792;2023-06-10T12:09:28;32.80;99.90
46492;DHT22;32206;51.446;6.792;2023-06-10T12:12:02;32.80;99.90
46492;DHT22;32206;51.446;6.792;2023-06-10T12:21:20;32.90;99.90
46492;DHT22;32206;51.446;6.792;2023-06-10T12:24:09;33.00;99.90
46492;DHT22;32206;51.446;6.792;2023-06-10T12:26:39;33.00;99.90
46492;DHT22;32206;51.446;6.792;2023-06-10T12:29:24;33.00;99.90
46492;DHT22;32206;51.446;6.792;2023-06-10T12:34:31;33.10;99.90
46492;DHT22;32206;51.446;6.792;2023-06-10T12:36:57;33.10;99.90
46492;DHT22;32206;51.446;6.792;2023-06-10T12:39:23;33.10;99.90
46492;DHT22;32206;51.446;6.792;2023-06-10T12:41:49;33.10;99.90
46492;DHT22;32206;51.446;6.792;2023-06-10T12:44:16;33.20;99.90
46492;DHT22;32206;51.446;6.792;2023-06-10T12:46:42;33.30;99.90
46492;DHT22;32206;51.446;6.792;2023-06-10T12:49:07;33.20;99.90
46492;DHT22;32206;51.446;6.792;2023-06-10T12:51:33;33.40;99.90
46492;DHT22;32206;51.446;6.792;2023-06-10T12:54:00;33.40;99.90
46492;DHT22;32206;51.446;6.792;2023-06-10T12:59:48;33.40;99.90
46492;DHT22;32206;51.446;6.792;2023-06-10T13:02:21;33.30;99.90
46492;DHT22;32206;51.446;6.792;2023-06-10T13:04:49;33.20;99.90
46492;DHT22;32206;51.446;6.792;2023-06-10T13:07:16;33.30;99.90
46492;DHT22;32206;51.446;6.792;2023-06-10T13:09:42;33.30;99.90
46492;DHT22;32206;51.446;6.792;2023-06-10T13:12:08;33.30;99.90
46492;DHT22;32206;51.446;6.792;2023-06-10T13:21:19;33.30;99.90
46492;DHT22;32206;51.446;6.792;2023-06-10T13:23:47;33.40;99.90
46492;DHT22;32206;51.446;6.792;2023-06-10T13:26:16;33.20;99.90
46492;DHT22;32206;51.446;6.792;2023-06-10T13:28:45;33.20;99.90
46492;DHT22;32206;51.446;6.792;2023-06-10T13:31:11;33.20;99.90
46492;DHT22;32206;51.446;6.792;2023-06-10T13:33:37;33.20;99.90
46492;DHT22;32206;51.446;6.792;2023-06-10T13:36:03;33.30;99.90
46492;DHT22;32206;51.446;6.792;2023-06-10T13:38:28;33.30;99.90
46492;DHT22;32206;51.446;6.792;2023-06-10T13:40:54;33.30;99.90
46492;DHT22;32206;51.446;6.792;2023-06-10T13:43:20;33.40;99.90
46492;DHT22;32206;51.446;6.792;2023-06-10T13:45:45;33.40;99.90
46492;DHT22;32206;51.446;6.792;2023-06-10T13:48:11;33.30;99.90
46492;DHT22;32206;51.446;6.792;2023-06-10T13:50:37;33.20;99.90
46492;DHT22;32206;51.446;6.792;2023-06-10T13:53:03;33.20;99.90
46492;DHT22;32206;51.446;6.792;2023-06-10T13:55:29;33.00;99.90
46492;DHT22;32206;51.446;6.792;2023-06-10T13:57:58;33.00;99.90
46492;DHT22;32206;51.446;6.792;2023-06-10T14:00:24;33.20;99.90
46492;DHT22;32206;51.446;6.792;2023-06-10T14:02:50;33.20;99.90
46492;DHT22;32206;51.446;6.792;2023-06-10T14:08:38;33.20;99.90
46492;DHT22;32206;51.446;6.792;2023-06-10T14:11:04;33.20;99.90
46492;DHT22;32206;51.446;6.792;2023-06-10T14:13:29;33.10;99.90
46492;DHT22;32206;51.446;6.792;2023-06-10T14:15:55;33.10;99.90
46492;DHT22;32206;51.446;6.792;2023-06-10T14:18:21;33.10;99.90
46492;DHT22;32206;51.446;6.792;2023-06-10T14:20:47;33.30;99.90
46492;DHT22;32206;51.446;6.792;2023-06-10T14:23:12;33.40;99.90
46492;DHT22;32206;51.446;6.792;2023-06-10T14:25:38;33.40;99.90
46492;DHT22;32206;51.446;6.792;2023-06-10T14:28:04;33.40;99.90
46492;DHT22;32206;51.446;6.792;2023-06-10T14:30:29;33.20;99.90
46492;DHT22;32206;51.446;6.792;2023-06-10T14:32:55;33.20;99.90
46492;DHT22;32206;51.446;6.792;2023-06-10T14:35:21;33.00;99.90
46492;DHT22;32206;51.446;6.792;2023-06-10T14:37:47;32.90;99.90
46492;DHT22;32206;51.446;6.792;2023-06-10T14:40:12;33.00;99.90
46492;DHT22;32206;51.446;6.792;2023-06-10T14:42:38;33.00;99.90
46492;DHT22;32206;51.446;6.792;2023-06-10T14:45:04;33.10;99.90
46492;DHT22;32206;51.446;6.792;2023-06-10T14:47:31;33.20;99.90
46492;DHT22;32206;51.446;6.792;2023-06-10T14:49:56;33.00;99.90
46492;DHT22;32206;51.446;6.792;2023-06-10T14:52:22;32.90;99.90
46492;DHT22;32206;51.446;6.792;2023-06-10T14:54:48;32.90;99.90
46492;DHT22;32206;51.446;6.792;2023-06-10T14:57:13;32.90;99.90
46492;DHT22;32206;51.446;6.792;2023-06-10T14:59:39;33.00;99.90
46492;DHT22;32206;51.446;6.792;2023-06-10T15:02:05;32.90;99.90
46492;DHT22;32206;51.446;6.792;2023-06-10T15:04:31;33.00;99.90
46492;DHT22;32206;51.446;6.792;2023-06-10T15:06:57;33.00;99.90
46492;DHT22;32206;51.446;6.792;2023-06-10T15:09:23;32.90;99.90
46492;DHT22;32206;51.446;6.792;2023-06-10T15:11:48;32.80;99.90
46492;DHT22;32206;51.446;6.792;2023-06-10T15:14:14;32.80;99.90
46492;DHT22;32206;51.446;6.792;2023-06-10T15:16:40;32.80;99.90
46492;DHT22;32206;51.446;6.792;2023-06-10T15:19:06;32.90;99.90
46492;DHT22;32206;51.446;6.792;2023-06-10T15:21:33;32.90;99.90
46492;DHT22;32206;51.446;6.792;2023-06-10T15:23:59;32.80;99.90
46492;DHT22;32206;51.446;6.792;2023-06-10T15:26:25;32.90;99.90
46492;DHT22;32206;51.446;6.792;2023-06-10T15:28:50;32.80;99.90
46492;DHT22;32206;51.446;6.792;2023-06-10T15:31:16;32.80;99.90
46492;DHT22;32206;51.446;6.792;2023-06-10T15:33:42;32.70;99.90
46492;DHT22;32206;51.446;6.792;2023-06-10T15:36:07;32.70;99.90
46492;DHT22;32206;51.446;6.792;2023-06-10T15:41:55;32.60;99.90
46492;DHT22;32206;51.446;6.792;2023-06-10T15:44:20;32.60;99.90
46492;DHT22;32206;51.446;6.792;2023-06-10T15:50:18;32.70;99.90
46492;DHT22;32206;51.446;6.792;2023-06-10T15:52:43;32.40;99.90
46492;DHT22;32206;51.446;6.792;2023-06-10T15:55:09;32.30;99.90
46492;DHT22;32206;51.446;6.792;2023-06-10T15:57:34;32.10;99.90
46492;DHT22;32206;51.446;6.792;2023-06-10T16:00:00;32.10;99.90
46492;DHT22;32206;51.446;6.792;2023-06-10T16:02:26;31.90;99.90
46492;DHT22;32206;51.446;6.792;2023-06-10T16:11:38;31.40;99.90
46492;DHT22;32206;51.446;6.792;2023-06-10T16:14:04;31.30;99.90
46492;DHT22;32206;51.446;6.792;2023-06-10T16:16:29;31.40;99.90
46492;DHT22;32206;51.446;6.792;2023-06-10T16:18:55;31.50;99.90
46492;DHT22;32206;51.446;6.792;2023-06-10T16:21:21;31.50;99.90
46492;DHT22;32206;51.446;6.792;2023-06-10T16:23:46;31.60;99.90
46492;DHT22;32206;51.446;6.792;2023-06-10T16:26:12;31.70;99.90
46492;DHT22;32206;51.446;6.792;2023-06-10T16:28:38;31.70;99.90
46492;DHT22;32206;51.446;6.792;2023-06-10T16:31:03;31.80;99.90
46492;DHT22;32206;51.446;6.792;2023-06-10T16:33:29;31.90;99.90
46492;DHT22;32206;51.446;6.792;2023-06-10T16:35:54;31.90;99.90
46492;DHT22;32206;51.446;6.792;2023-06-10T16:38:20;31.90;99.90
46492;DHT22;32206;51.446;6.792;2023-06-10T16:40:47;31.90;99.90
46492;DHT22;32206;51.446;6.792;2023-06-10T16:43:13;31.90;99.90
46492;DHT22;32206;51.446;6.792;2023-06-10T16:45:38;31.80;99.90
46492;DHT22;32206;51.446;6.792;2023-06-10T16:48:04;31.70;99.90
46492;DHT22;32206;51.446;6.792;2023-06-10T16:50:31;31.60;99.90
46492;DHT22;32206;51.446;6.792;2023-06-10T16:52:57;31.50;99.90
46492;DHT22;32206;51.446;6.792;2023-06-10T16:55:22;31.30;99.90
46492;DHT22;32206;51.446;6.792;2023-06-10T16:57:48;31.20;99.90
46492;DHT22;32206;51.446;6.792;2023-06-10T17:00:14;31.00;99.90
46492;DHT22;32206;51.446;6.792;2023-06-10T17:02:41;30.90;99.90
46492;DHT22;32206;51.446;6.792;2023-06-10T17:05:07;30.80;99.90
46492;DHT22;32206;51.446;6.792;2023-06-10T17:07:32;30.80;99.90
46492;DHT22;32206;51.446;6.792;2023-06-10T17:09:58;30.80;99.90
46492;DHT22;32206;51.446;6.792;2023-06-10T17:12:24;30.80;99.90
46492;DHT22;32206;51.446;6.792;2023-06-10T17:14:50;30.80;99.90
46492;DHT22;32206;51.446;6.792;2023-06-10T17:17:15;30.80;99.90
46492;DHT22;32206;51.446;6.792;2023-06-10T17:19:41;30.80;99.90
46492;DHT22;32206;51.446;6.792;2023-06-10T17:22:06;30.80;99.90
46492;DHT22;32206;51.446;6.792;2023-06-10T17:24:32;30.80;99.90
46492;DHT22;32206;51.446;6.792;2023-06-10T17:26:58;30.70;99.90
46492;DHT22;32206;51.446;6.792;2023-06-10T17:29:23;30.80;99.90
46492;DHT22;32206;51.446;6.792;2023-06-10T17:31:49;30.80;99.90
46492;DHT22;32206;51.446;6.792;2023-06-10T17:34:14;30.80;99.90
46492;DHT22;32206;51.446;6.792;2023-06-10T17:36:40;30.80;99.90
46492;DHT22;32206;51.446;6.792;2023-06-10T17:39:06;30.70;99.90
46492;DHT22;32206;51.446;6.792;2023-06-10T17:41:32;30.70;99.90
46492;DHT22;32206;51.446;6.792;2023-06-10T17:43:57;30.60;99.90
46492;DHT22;32206;51.446;6.792;2023-06-10T17:46:26;30.70;99.90
46492;DHT22;32206;51.446;6.792;2023-06-10T17:48:51;30.60;99.90
46492;DHT22;32206;51.446;6.792;2023-06-10T17:51:17;30.60;99.90
46492;DHT22;32206;51.446;6.792;2023-06-10T17:53:42;30.50;99.90
46492;DHT22;32206;51.446;6.792;2023-06-10T17:56:08;30.50;99.90
46492;DHT22;32206;51.446;6.792;2023-06-10T17:58:34;30.40;99.90
46492;DHT22;32206;51.446;6.792;2023-06-10T18:00:59;30.40;99.90
46492;DHT22;32206;51.446;6.792;2023-06-10T18:03:25;30.40;99.90
46492;DHT22;32206;51.446;6.792;2023-06-10T18:05:54;30.30;99.90
46492;DHT22;32206;51.446;6.792;2023-06-10T18:11:54;30.20;99.90
46492;DHT22;32206;51.446;6.792;2023-06-10T18:14:20;30.20;99.90
46492;DHT22;32206;51.446;6.792;2023-06-10T18:16:46;30.10;99.90
46492;DHT22;32206;51.446;6.792;2023-06-10T18:19:11;30.10;99.90
46492;DHT22;32206;51.446;6.792;2023-06-10T18:21:37;30.00;99.90
46492;DHT22;32206;51.446;6.792;2023-06-10T18:24:03;30.00;99.90
46492;DHT22;32206;51.446;6.792;2023-06-10T18:26:30;30.10;99.90
46492;DHT22;32206;51.446;6.792;2023-06-10T18:28:55;30.10;99.90
46492;DHT22;32206;51.446;6.792;2023-06-10T18:31:21;30.30;99.90
46492;DHT22;32206;51.446;6.792;2023-06-10T18:33:47;30.20;99.90
46492;DHT22;32206;51.446;6.792;2023-06-10T18:39:35;32.70;99.90
46492;DHT22;32206;51.446;6.792;2023-06-10T18:42:01;34.10;99.90
46492;DHT22;32206;51.446;6.792;2023-06-10T18:44:27;33.80;99.90
46492;DHT22;32206;51.446;6.792;2023-06-10T18:46:53;33.20;99.90
46492;DHT22;32206;51.446;6.792;2023-06-10T18:49:19;32.30;99.90
46492;DHT22;32206;51.446;6.792;2023-06-10T18:51:45;31.80;99.90
46492;DHT22;32206;51.446;6.792;2023-06-10T19:00:54;30.00;99.90
46492;DHT22;32206;51.446;6.792;2023-06-10T19:03:20;29.60;99.90
46492;DHT22;32206;51.446;6.792;2023-06-10T19:09:08;29.10;99.90
46492;DHT22;32206;51.446;6.792;2023-06-10T19:11:33;29.00;99.90
46492;DHT22;32206;51.446;6.792;2023-06-10T19:13:59;28.90;99.90
46492;DHT22;32206;51.446;6.792;2023-06-10T19:16:25;28.70;99.90
46492;DHT22;32206;51.446;6.792;2023-06-10T19:18:51;28.70;99.90
46492;DHT22;32206;51.446;6.792;2023-06-10T19:21:17;28.60;99.90
46492;DHT22;32206;51.446;6.792;2023-06-10T19:23:43;28.50;99.90
46492;DHT22;32206;51.446;6.792;2023-06-10T19:26:09;28.40;99.90
46492;DHT22;32206;51.446;6.792;2023-06-10T19:28:34;28.30;99.90
46492;DHT22;32206;51.446;6.792;2023-06-10T19:31:00;28.20;99.90
46492;DHT22;32206;51.446;6.792;2023-06-10T19:33:26;28.20;99.90
46492;DHT22;32206;51.446;6.792;2023-06-10T19:35:51;28.20;99.90
46492;DHT22;32206;51.446;6.792;2023-06-10T19:38:18;28.10;99.90
46492;DHT22;32206;51.446;6.792;2023-06-10T19:40:44;28.00;99.90
46492;DHT22;32206;51.446;6.792;2023-06-10T19:43:10;28.00;99.90
46492;DHT22;32206;51.446;6.792;2023-06-10T19:49:16;27.90;99.90
46492;DHT22;32206;51.446;6.792;2023-06-10T19:51:42;27.70;99.90
46492;DHT22;32206;51.446;6.792;2023-06-10T19:54:11;27.70;99.90
46492;DHT22;32206;51.446;6.792;2023-06-10T19:56:36;27.70;99.90
46492;DHT22;32206;51.446;6.792;2023-06-10T19:59:02;27.60;99.90
46492;DHT22;32206;51.446;6.792;2023-06-10T20:01:28;27.50;99.90
46492;DHT22;32206;51.446;6.792;2023-06-10T20:03:54;27.50;99.90
46492;DHT22;32206;51.446;6.792;2023-06-10T20:06:19;27.40;99.90
46492;DHT22;32206;51.446;6.792;2023-06-10T20:08:45;27.40;99.90
46492;DHT22;32206;51.446;6.792;2023-06-10T20:11:11;27.40;99.90
46492;DHT22;32206;51.446;6.792;2023-06-10T20:13:36;27.30;99.90
46492;DHT22;32206;51.446;6.792;2023-06-10T20:16:02;27.20;99.90
46492;DHT22;32206;51.446;6.792;2023-06-10T20:18:27;27.20;99.90
46492;DHT22;32206;51.446;6.792;2023-06-10T20:20:53;27.20;99.90
46492;DHT22;32206;51.446;6.792;2023-06-10T20:23:26;27.20;99.90
46492;DHT22;32206;51.446;6.792;2023-06-10T20:25:52;27.10;99.90
46492;DHT22;32206;51.446;6.792;2023-06-10T20:28:18;27.10;99.90
46492;DHT22;32206;51.446;6.792;2023-06-10T20:30:43;27.00;99.90
46492;DHT22;32206;51.446;6.792;2023-06-10T20:33:09;26.90;99.90
46492;DHT22;32206;51.446;6.792;2023-06-10T20:35:34;26.90;99.90
46492;DHT22;32206;51.446;6.792;2023-06-10T20:38:01;26.80;99.90
46492;DHT22;32206;51.446;6.792;2023-06-10T20:40:26;26.80;99.90
46492;DHT22;32206;51.446;6.792;2023-06-10T20:42:52;26.70;99.90
46492;DHT22;32206;51.446;6.792;2023-06-10T20:45:17;26.60;99.90
46492;DHT22;32206;51.446;6.792;2023-06-10T20:47:43;26.60;99.90
46492;DHT22;32206;51.446;6.792;2023-06-10T20:50:09;26.60;99.90
46492;DHT22;32206;51.446;6.792;2023-06-10T20:52:34;26.50;99.90
46492;DHT22;32206;51.446;6.792;2023-06-10T20:55:00;26.40;99.90
46492;DHT22;32206;51.446;6.792;2023-06-10T21:04:11;26.30;99.90
46492;DHT22;32206;51.446;6.792;2023-06-10T21:06:36;26.20;99.90
46492;DHT22;32206;51.446;6.792;2023-06-10T21:09:02;26.20;99.90
46492;DHT22;32206;51.446;6.792;2023-06-10T21:11:28;26.20;99.90
46492;DHT22;32206;51.446;6.792;2023-06-10T21:13:53;26.10;99.90
46492;DHT22;32206;51.446;6.792;2023-06-10T21:16:19;26.00;99.90
46492;DHT22;32206;51.446;6.792;2023-06-10T21:18:44;26.00;99.90
46492;DHT22;32206;51.446;6.792;2023-06-10T21:21:10;25.90;99.90
46492;DHT22;32206;51.446;6.792;2023-06-10T21:23:37;25.80;99.90
46492;DHT22;32206;51.446;6.792;2023-06-10T21:26:02;25.80;99.90
46492;DHT22;32206;51.446;6.792;2023-06-10T21:28:31;25.80;99.90
46492;DHT22;32206;51.446;6.792;2023-06-10T21:30:57;25.80;99.90
46492;DHT22;32206;51.446;6.792;2023-06-10T21:33:22;25.70;99.90
46492;DHT22;32206;51.446;6.792;2023-06-10T21:35:58;25.70;99.90
46492;DHT22;32206;51.446;6.792;2023-06-10T21:38:24;25.60;99.90
46492;DHT22;32206;51.446;6.792;2023-06-10T21:40:51;25.60;99.90
46492;DHT22;32206;51.446;6.792;2023-06-10T21:43:17;25.60;99.90
46492;DHT22;32206;51.446;6.792;2023-06-10T21:49:05;25.50;99.90
46492;DHT22;32206;51.446;6.792;2023-06-10T21:51:30;25.40;99.90
46492;DHT22;32206;51.446;6.792;2023-06-10T21:53:56;25.40;99.90
46492;DHT22;32206;51.446;6.792;2023-06-10T21:56:21;25.40;99.90
46492;DHT22;32206;51.446;6.792;2023-06-10T21:58:47;25.30;99.90
46492;DHT22;32206;51.446;6.792;2023-06-10T22:01:16;25.30;99.90
46492;DHT22;32206;51.446;6.792;2023-06-10T22:03:41;25.20;99.90
46492;DHT22;32206;51.446;6.792;2023-06-10T22:06:07;25.20;99.90
46492;DHT22;32206;51.446;6.792;2023-06-10T22:08:35;25.10;99.90
46492;DHT22;32206;51.446;6.792;2023-06-10T22:11:01;25.10;99.90
46492;DHT22;32206;51.446;6.792;2023-06-10T22:13:26;25.00;99.90
46492;DHT22;32206;51.446;6.792;2023-06-10T22:15:52;25.00;99.90
46492;DHT22;32206;51.446;6.792;2023-06-10T22:18:17;25.00;99.90
46492;DHT22;32206;51.446;6.792;2023-06-10T22:20:43;24.90;99.90
46492;DHT22;32206;51.446;6.792;2023-06-10T22:23:09;24.80;99.90
46492;DHT22;32206;51.446;6.792;2023-06-10T22:25:35;24.80;99.90
46492;DHT22;32206;51.446;6.792;2023-06-10T22:28:01;24.70;99.90
46492;DHT22;32206;51.446;6.792;2023-06-10T22:30:26;24.70;99.90
46492;DHT22;32206;51.446;6.792;2023-06-10T22:32:52;24.70;99.90
46492;DHT22;32206;51.446;6.792;2023-06-10T22:35:18;24.60;99.90
46492;DHT22;32206;51.446;6.792;2023-06-10T22:37:43;24.60;99.90
46492;DHT22;32206;51.446;6.792;2023-06-10T22:40:09;24.60;99.90
46492;DHT22;32206;51.446;6.792;2023-06-10T22:42:35;24.50;99.90
46492;DHT22;32206;51.446;6.792;2023-06-10T22:45:01;24.40;99.90
46492;DHT22;32206;51.446;6.792;2023-06-10T22:47:27;24.40;99.90
46492;DHT22;32206;51.446;6.792;2023-06-10T22:49:52;24.30;1.00
46492;DHT22;32206;51.446;6.792;2023-06-10T22:52:18;24.20;1.00
46492;DHT22;32206;51.446;6.792;2023-06-10T22:54:43;24.20;1.00
46492;DHT22;32206;51.446;6.792;2023-06-10T23:03:54;24.00;1.00
46492;DHT22;32206;51.446;6.792;2023-06-10T23:06:19;24.00;1.00
46492;DHT22;32206;51.446;6.792;2023-06-10T23:08:45;24.00;1.00
46492;DHT22;32206;51.446;6.792;2023-06-10T23:11:11;23.90;1.00
46492;DHT22;32206;51.446;6.792;2023-06-10T23:13:36;23.90;1.00
46492;DHT22;32206;51.446;6.792;2023-06-10T23:16:02;23.80;1.00
46492;DHT22;32206;51.446;6.792;2023-06-10T23:18:27;23.80;1.00
46492;DHT22;32206;51.446;6.792;2023-06-10T23:20:53;23.70;18.00
46492;DHT22;32206;51.446;6.792;2023-06-10T23:23:19;23.70;16.90
46492;DHT22;32206;51.446;6.792;2023-06-10T23:25:45;23.60;49.80
46492;DHT22;32206;51.446;6.792;2023-06-10T23:28:11;23.60;66.10
46492;DHT22;32206;51.446;6.792;2023-06-10T23:30:37;23.60;97.80
46492;DHT22;32206;51.446;6.792;2023-06-10T23:33:02;23.50;99.90
46492;DHT22;32206;51.446;6.792;2023-06-10T23:35:29;23.50;99.90
46492;DHT22;32206;51.446;6.792;2023-06-10T23:37:55;23.40;99.90
46492;DHT22;32206;51.446;6.792;2023-06-10T23:40:20;23.40;99.90
46492;DHT22;32206;51.446;6.792;2023-06-10T23:42:47;23.30;99.90
46492;DHT22;32206;51.446;6.792;2023-06-10T23:45:13;23.30;99.90
46492;DHT22;32206;51.446;6.792;2023-06-10T23:47:39;23.30;99.90
46492;DHT22;32206;51.446;6.792;2023-06-10T23:50:05;23.30;99.90
46492;DHT22;32206;51.446;6.792;2023-06-10T23:52:31;23.30;99.90
46492;DHT22;32206;51.446;6.792;2023-06-10T23:54:57;23.30;99.90
46492;DHT22;32206;51.446;6.792;2023-06-10T23:57:23;23.30;99.90
46492;DHT22;32206;51.446;6.792;2023-06-10T23:59:49;23.30;99.90
